Terminal Aerodrome Forecast
Issued by NWS Portland, OR

Home | Current Version | Previous Version | Text Only | Print | Product List | Glossary On
Versions: 1 2 3 4 5 6 7 8 9 10 11 12 13 14 15 16 17 18 19 20 21 22 23 24 25 26 27 28 29 30
000
FTUS46 KPQR 170303 AAA
TAFPDX
TAF AMD
KPDX 170303Z 1703/1724 22005KT P6SM -SHRA SCT025 BKN045 OVC060
     FM170700 19006KT P6SM -RA SCT025 OVC045
     FM171200 18006KT P6SM -RA SCT015 BKN025 OVC035
     FM172000 20011KT P6SM -RA BKN020 OVC035=

USA.gov is the U.S. government's official web portal to all federal, state and local government web resources and services.